Terminal Aerodrome Forecast
Issued by NWS

Home | Current Version | Previous Version | Text Only | Print | Product List | Glossary On
Versions: 1 2 3 4 5 6 7 8 9 10 11 12 13 14 15 16 17 18 19 20 21
000
FTUS43 KIND 120520
TAFHUF
TAF
KHUF 120520Z 1206/1306 00000KT P6SM OVC080
     FM120900 24004KT P6SM BKN040 OVC080
      TEMPO 1210/1214 5SM -SN
     FM121500 26010KT P6SM BKN025 OVC040
     FM122000 30015G23KT P6SM BKN025 OVC040=

USA.gov is the U.S. government's official web portal to all federal, state and local government web resources and services.